createdAt,value
2022-07-29T00:01:19.422Z,18.03
2022-07-29T00:03:47.040Z,18.10
2022-07-29T00:06:15.161Z,18.01
2022-07-29T00:08:42.211Z,17.91
2022-07-29T00:11:09.313Z,17.95
2022-07-29T00:13:36.389Z,17.86
2022-07-29T00:16:05.096Z,17.71
2022-07-29T00:18:33.141Z,17.55
2022-07-29T00:21:00.809Z,17.58
2022-07-29T00:23:27.875Z,17.65
2022-07-29T00:25:55.219Z,17.64
2022-07-29T00:28:22.257Z,17.68
2022-07-29T00:30:49.215Z,17.61
2022-07-29T00:33:16.193Z,17.58
2022-07-29T00:35:46.093Z,17.53
2022-07-29T00:38:20.060Z,17.55
2022-07-29T00:40:47.858Z,17.53
2022-07-29T00:43:15.811Z,17.55
2022-07-29T00:45:43.516Z,17.48
2022-07-29T00:48:11.580Z,17.42
2022-07-29T00:50:39.345Z,17.49
2022-07-29T00:53:08.454Z,17.41
2022-07-29T00:55:36.462Z,17.32
2022-07-29T00:58:03.989Z,17.33
2022-07-29T01:00:31.438Z,17.33
2022-07-29T01:02:58.795Z,17.34
2022-07-29T01:05:48.501Z,17.12
2022-07-29T01:08:18.170Z,17.15
2022-07-29T01:10:46.743Z,17.11
2022-07-29T01:13:15.759Z,16.91
2022-07-29T01:15:50.446Z,17.05
2022-07-29T01:18:31.322Z,17.00
2022-07-29T01:21:12.839Z,16.95
2022-07-29T01:23:54.486Z,17.00
2022-07-29T01:27:02.702Z,16.81
2022-07-29T01:29:40.376Z,16.96
2022-07-29T01:32:27.621Z,16.98
2022-07-29T01:35:18.231Z,16.91
2022-07-29T01:37:49.780Z,16.89
2022-07-29T01:40:44.011Z,16.89
2022-07-29T01:43:17.209Z,16.97
2022-07-29T01:45:58.887Z,16.86
2022-07-29T01:48:40.420Z,16.98
2022-07-29T01:51:19.251Z,16.93
2022-07-29T01:54:04.725Z,16.85
2022-07-29T01:56:34.707Z,16.86
2022-07-29T01:59:05.524Z,16.82
2022-07-29T02:01:35.978Z,16.78
2022-07-29T02:04:11.068Z,16.76
2022-07-29T02:06:41.235Z,16.76
2022-07-29T02:09:10.303Z,16.81
2022-07-29T02:11:38.982Z,16.73
2022-07-29T02:14:07.865Z,16.77
2022-07-29T02:16:38.811Z,16.61
2022-07-29T02:19:07.682Z,16.60
2022-07-29T02:21:36.446Z,16.67
2022-07-29T02:24:05.321Z,16.59
2022-07-29T02:26:34.571Z,16.54
2022-07-29T02:29:03.168Z,16.49
2022-07-29T02:31:35.497Z,16.48
2022-07-29T02:34:07.397Z,16.33
2022-07-29T02:36:35.287Z,16.40
2022-07-29T02:39:05.099Z,16.43
2022-07-29T02:41:46.303Z,16.41
2022-07-29T02:44:17.319Z,16.53
2022-07-29T02:47:21.610Z,16.37
2022-07-29T02:50:05.305Z,16.22
2022-07-29T02:52:58.634Z,16.34
2022-07-29T02:55:47.024Z,16.19
2022-07-29T02:58:30.280Z,16.30
2022-07-29T03:01:04.092Z,16.49
2022-07-29T03:03:38.410Z,16.39
2022-07-29T03:06:07.461Z,16.35
2022-07-29T03:08:36.630Z,16.23
2022-07-29T03:11:04.712Z,16.24
2022-07-29T03:13:32.262Z,16.28
2022-07-29T03:16:00.015Z,16.32
2022-07-29T03:18:27.319Z,16.27
2022-07-29T03:20:54.365Z,16.36
2022-07-29T03:23:23.859Z,16.39
2022-07-29T03:25:52.102Z,16.59
2022-07-29T03:28:19.265Z,16.71
2022-07-29T03:30:46.838Z,16.87
2022-07-29T03:33:14.966Z,17.26
2022-07-29T03:35:42.351Z,17.53
2022-07-29T03:38:09.375Z,17.95
2022-07-29T03:41:11.481Z,18.59
2022-07-29T03:43:49.049Z,19.57
2022-07-29T03:46:18.920Z,20.21
2022-07-29T03:48:51.755Z,20.69
2022-07-29T03:51:19.010Z,20.90
2022-07-29T03:54:09.893Z,21.57
2022-07-29T03:56:43.053Z,22.63
2022-07-29T03:59:11.884Z,22.95
2022-07-29T04:01:40.777Z,23.55
2022-07-29T04:04:07.915Z,24.24
2022-07-29T04:06:48.314Z,24.98
2022-07-29T04:09:15.743Z,25.23
2022-07-29T04:12:01.663Z,25.53
2022-07-29T04:14:32.016Z,25.78
2022-07-29T04:16:59.251Z,26.12
2022-07-29T04:19:26.286Z,27.56
2022-07-29T04:21:53.491Z,28.28
2022-07-29T04:24:20.837Z,28.95
2022-07-29T04:26:48.697Z,29.19
2022-07-29T04:29:15.944Z,29.52
2022-07-29T04:31:43.941Z,30.10
2022-07-29T04:34:11.431Z,31.14
2022-07-29T04:36:38.681Z,31.51
2022-07-29T04:39:06.043Z,32.16
2022-07-29T04:41:33.793Z,33.31
2022-07-29T04:44:06.869Z,33.03
2022-07-29T04:46:39.805Z,33.20
2022-07-29T04:49:07.152Z,33.41
2022-07-29T04:51:34.558Z,33.49
2022-07-29T04:54:01.945Z,33.98
2022-07-29T04:56:31.379Z,35.32
2022-07-29T04:58:58.385Z,36.02
2022-07-29T05:01:25.431Z,35.42
2022-07-29T05:03:54.856Z,35.54
2022-07-29T05:06:24.045Z,35.16
2022-07-29T05:08:51.091Z,36.29
2022-07-29T05:11:21.319Z,36.81
2022-07-29T05:13:49.496Z,36.68
2022-07-29T05:16:16.503Z,36.40
2022-07-29T05:18:43.541Z,37.80
2022-07-29T05:21:10.633Z,38.60
2022-07-29T05:23:37.650Z,38.59
2022-07-29T05:26:04.636Z,39.02
2022-07-29T05:28:36.158Z,39.42
2022-07-29T05:31:03.364Z,39.78
2022-07-29T05:33:36.133Z,39.96
2022-07-29T05:36:07.627Z,39.81
2022-07-29T05:38:36.783Z,39.35
2022-07-29T05:41:06.155Z,40.27
2022-07-29T05:43:33.439Z,39.28
2022-07-29T05:46:00.465Z,39.32
2022-07-29T05:48:27.682Z,39.78
2022-07-29T05:50:55.450Z,39.22
2022-07-29T05:53:22.751Z,39.78
2022-07-29T05:55:50.260Z,39.60
2022-07-29T05:58:17.534Z,39.60
2022-07-29T06:00:44.716Z,40.12
2022-07-29T06:03:11.997Z,39.87
2022-07-29T06:05:39.001Z,40.66
2022-07-29T06:08:09.767Z,39.85
2022-07-29T06:10:37.226Z,39.67
2022-07-29T06:13:04.404Z,40.48
2022-07-29T06:15:31.470Z,40.34
2022-07-29T06:18:00.767Z,41.20
2022-07-29T06:20:32.975Z,41.80
2022-07-29T06:23:01.166Z,42.53
2022-07-29T06:25:31.847Z,42.48
2022-07-29T06:27:59.158Z,42.62
2022-07-29T06:30:26.269Z,40.53
2022-07-29T06:32:53.648Z,40.47
2022-07-29T06:35:41.756Z,41.12
2022-07-29T06:38:30.034Z,41.06
2022-07-29T06:41:05.116Z,40.49
2022-07-29T06:43:52.091Z,40.46
2022-07-29T06:46:22.442Z,41.22
2022-07-29T06:48:49.853Z,41.12
2022-07-29T06:51:22.607Z,41.86
2022-07-29T06:53:59.590Z,41.69
2022-07-29T06:56:39.434Z,39.39
2022-07-29T06:59:09.073Z,40.74
2022-07-29T07:01:42.467Z,41.39
2022-07-29T07:04:11.566Z,40.15
2022-07-29T07:06:39.418Z,40.01
2022-07-29T07:09:06.766Z,40.57
2022-07-29T07:11:34.918Z,39.87
2022-07-29T07:14:03.890Z,38.69
2022-07-29T07:16:42.191Z,39.50
2022-07-29T07:19:09.386Z,39.94
2022-07-29T07:21:36.630Z,39.48
2022-07-29T07:24:04.139Z,39.41
2022-07-29T07:26:31.358Z,39.78
2022-07-29T07:28:58.798Z,39.89
2022-07-29T07:31:26.055Z,39.51
2022-07-29T07:33:54.568Z,39.00
2022-07-29T07:36:21.882Z,39.45
2022-07-29T07:38:49.063Z,38.42
2022-07-29T07:41:16.137Z,39.20
2022-07-29T07:43:43.332Z,37.98
2022-07-29T07:46:10.477Z,39.49
2022-07-29T07:48:37.630Z,40.43
2022-07-29T07:51:04.760Z,39.96
2022-07-29T07:53:31.892Z,39.70
2022-07-29T07:56:10.543Z,39.51
2022-07-29T07:58:39.473Z,39.01
2022-07-29T08:01:06.617Z,38.00
2022-07-29T08:03:34.656Z,38.61
2022-07-29T08:06:02.190Z,37.89
2022-07-29T08:08:29.210Z,37.87
2022-07-29T08:11:02.219Z,38.31
2022-07-29T08:13:32.973Z,37.71
2022-07-29T08:16:12.443Z,39.09
2022-07-29T08:18:42.007Z,38.99
2022-07-29T08:21:09.275Z,37.32
2022-07-29T08:23:47.494Z,36.74
2022-07-29T08:26:17.791Z,36.92
2022-07-29T08:28:47.112Z,36.30
2022-07-29T08:31:15.016Z,35.75
2022-07-29T08:33:42.784Z,36.73
2022-07-29T08:36:10.675Z,36.62
2022-07-29T08:38:37.809Z,36.11
2022-07-29T08:41:04.869Z,35.41
2022-07-29T08:43:31.957Z,35.55
2022-07-29T08:45:59.280Z,35.71
2022-07-29T08:48:26.328Z,34.72
2022-07-29T08:50:57.689Z,34.00
2022-07-29T08:53:28.261Z,34.64
2022-07-29T08:55:55.748Z,35.25
2022-07-29T08:58:25.006Z,35.05
2022-07-29T09:00:58.112Z,35.93
2022-07-29T09:03:32.606Z,34.15
2022-07-29T09:06:04.398Z,34.79
2022-07-29T09:08:33.678Z,33.93
2022-07-29T09:11:03.929Z,33.69
2022-07-29T09:13:32.367Z,34.10
2022-07-29T09:15:59.370Z,33.11
2022-07-29T09:18:42.353Z,34.43
2022-07-29T09:21:32.063Z,33.27
2022-07-29T09:24:08.027Z,33.31
2022-07-29T09:26:43.936Z,32.96
2022-07-29T09:29:24.022Z,32.63
2022-07-29T09:31:54.701Z,31.84
2022-07-29T09:34:28.358Z,32.16
2022-07-29T09:36:56.769Z,31.32
2022-07-29T09:39:39.742Z,32.45
2022-07-29T09:42:07.590Z,30.95
2022-07-29T09:44:51.561Z,30.53
2022-07-29T09:47:20.058Z,30.30
2022-07-29T09:50:00.424Z,30.38
2022-07-29T09:52:30.014Z,30.01
2022-07-29T09:55:08.942Z,29.58
2022-07-29T09:57:36.846Z,30.36
2022-07-29T10:00:17.061Z,30.05
2022-07-29T10:02:47.015Z,30.69
2022-07-29T10:05:22.844Z,30.82
2022-07-29T10:07:57.233Z,30.54
2022-07-29T10:10:29.509Z,30.42
2022-07-29T10:13:04.553Z,29.77
2022-07-29T10:15:40.168Z,29.38
2022-07-29T10:18:09.036Z,29.04
2022-07-29T10:20:36.582Z,29.28
2022-07-29T10:23:04.277Z,29.42
2022-07-29T10:25:31.854Z,29.34
2022-07-29T10:27:59.348Z,28.94
2022-07-29T10:30:28.100Z,29.15
2022-07-29T10:33:28.662Z,28.74
2022-07-29T10:36:35.945Z,29.46
2022-07-29T10:39:49.809Z,29.62
2022-07-29T10:42:34.215Z,30.70
2022-07-29T10:45:04.771Z,31.50
2022-07-29T10:47:32.280Z,31.15
2022-07-29T10:50:06.316Z,30.78
2022-07-29T10:52:57.655Z,30.46
2022-07-29T10:55:43.744Z,30.91
2022-07-29T10:58:18.003Z,29.97
2022-07-29T11:00:51.830Z,29.41
2022-07-29T11:03:50.752Z,29.67
2022-07-29T11:06:26.999Z,30.67
2022-07-29T11:09:25.781Z,30.32
2022-07-29T11:12:02.892Z,29.88
2022-07-29T11:15:00.281Z,30.53
2022-07-29T11:17:27.763Z,29.54
2022-07-29T11:20:46.820Z,29.31
2022-07-29T11:23:36.674Z,29.56
2022-07-29T11:26:18.561Z,29.14
2022-07-29T11:28:52.279Z,28.71
2022-07-29T11:31:45.231Z,28.94
2022-07-29T11:34:36.655Z,29.47
2022-07-29T11:37:12.600Z,28.97
2022-07-29T11:39:55.678Z,29.13
2022-07-29T11:42:32.186Z,29.36
2022-07-29T11:48:29.971Z,29.69
2022-07-29T11:50:55.108Z,29.35
2022-07-29T11:53:25.710Z,29.26
2022-07-29T11:55:58.294Z,29.28
2022-07-29T11:58:26.161Z,29.32
2022-07-29T12:00:55.549Z,29.30
2022-07-29T12:06:17.990Z,29.11
2022-07-29T12:07:02.021Z,29.29
2022-07-29T12:07:02.500Z,29.15
2022-07-29T12:08:45.667Z,28.51
2022-07-29T12:11:22.726Z,29.16
2022-07-29T12:13:52.381Z,29.37
2022-07-29T12:16:27.994Z,29.19
2022-07-29T12:19:02.402Z,28.30
2022-07-29T12:21:53.605Z,28.13
2022-07-29T12:24:26.763Z,27.80
2022-07-29T12:27:00.673Z,27.73
2022-07-29T12:29:34.760Z,27.94
2022-07-29T12:32:05.374Z,28.60
2022-07-29T12:34:33.336Z,28.87
2022-07-29T12:37:00.733Z,28.17
2022-07-29T12:39:29.069Z,27.59
2022-07-29T12:42:04.187Z,27.84
2022-07-29T12:44:52.523Z,27.80
2022-07-29T12:47:21.009Z,27.91
2022-07-29T12:49:50.361Z,27.60
2022-07-29T12:52:35.553Z,28.03
2022-07-29T12:55:03.385Z,27.96
2022-07-29T12:57:31.039Z,27.95
2022-07-29T13:00:14.064Z,28.38
2022-07-29T13:02:43.614Z,28.49
2022-07-29T13:05:12.417Z,28.38
2022-07-29T13:07:55.389Z,28.55
2022-07-29T13:10:24.908Z,28.15
2022-07-29T13:13:11.837Z,28.26
2022-07-29T13:15:41.440Z,27.78
2022-07-29T13:18:33.104Z,28.08
2022-07-29T13:21:14.022Z,27.36
2022-07-29T13:23:41.763Z,27.84
2022-07-29T13:26:12.984Z,27.57
2022-07-29T13:28:44.170Z,27.58
2022-07-29T13:31:11.733Z,27.79
2022-07-29T13:33:38.959Z,27.49
2022-07-29T13:36:06.240Z,27.45
2022-07-29T13:38:33.210Z,27.62
2022-07-29T13:41:00.282Z,27.99
2022-07-29T13:43:27.484Z,28.48
2022-07-29T13:45:54.772Z,28.67
2022-07-29T13:48:21.842Z,28.67
2022-07-29T13:50:49.226Z,28.25
2022-07-29T13:53:18.003Z,27.99
2022-07-29T13:55:45.383Z,28.07
2022-07-29T13:58:12.402Z,27.80
2022-07-29T14:00:39.465Z,27.96
2022-07-29T14:03:07.441Z,28.30
2022-07-29T14:05:34.534Z,27.69
2022-07-29T14:08:01.497Z,27.44
2022-07-29T14:10:28.657Z,27.21
2022-07-29T14:12:55.647Z,27.46
2022-07-29T14:15:22.879Z,27.17
2022-07-29T14:17:49.901Z,27.23
2022-07-29T14:20:17.195Z,27.36
2022-07-29T14:22:44.978Z,27.00
2022-07-29T14:25:15.181Z,27.15
2022-07-29T14:27:44.634Z,27.00
2022-07-29T14:30:12.541Z,26.33
2022-07-29T14:32:39.520Z,26.63
2022-07-29T14:35:08.934Z,26.65
2022-07-29T14:37:39.957Z,26.58
2022-07-29T14:40:09.504Z,26.41
2022-07-29T14:42:38.075Z,26.63
2022-07-29T14:45:07.363Z,26.70
2022-07-29T14:47:35.334Z,26.32
2022-07-29T14:50:06.026Z,26.77
2022-07-29T14:52:33.055Z,26.96
2022-07-29T14:55:00.493Z,27.01
2022-07-29T14:57:27.577Z,27.11
2022-07-29T14:59:54.637Z,26.98
2022-07-29T15:02:23.732Z,26.74
2022-07-29T15:04:55.189Z,26.64
2022-07-29T15:07:22.303Z,26.99
2022-07-29T15:09:50.097Z,27.17
2022-07-29T15:12:17.559Z,26.58
2022-07-29T15:14:44.574Z,26.80
2022-07-29T15:17:11.626Z,26.81
2022-07-29T15:19:38.657Z,26.72
2022-07-29T15:22:11.858Z,26.51
2022-07-29T15:24:38.857Z,26.42
2022-07-29T15:27:06.127Z,26.30
2022-07-29T15:29:33.810Z,25.87
2022-07-29T15:32:01.223Z,26.15
2022-07-29T15:34:28.583Z,25.94
2022-07-29T15:36:55.580Z,26.11
2022-07-29T15:39:23.306Z,26.01
2022-07-29T15:41:50.914Z,26.07
2022-07-29T15:44:18.676Z,26.02
2022-07-29T15:47:05.623Z,26.15
2022-07-29T15:49:46.582Z,26.11
2022-07-29T15:52:25.077Z,25.85
2022-07-29T15:54:55.469Z,25.54
2022-07-29T15:57:23.246Z,25.68
2022-07-29T15:59:50.800Z,25.46
2022-07-29T16:02:18.060Z,25.11
2022-07-29T16:04:46.130Z,25.15
2022-07-29T16:07:14.174Z,25.00
2022-07-29T16:09:42.526Z,25.23
2022-07-29T16:12:15.103Z,25.03
2022-07-29T16:14:45.379Z,25.07
2022-07-29T16:17:14.853Z,24.96
2022-07-29T16:19:45.752Z,25.09
2022-07-29T16:22:15.385Z,25.26
2022-07-29T16:24:42.458Z,25.16
2022-07-29T16:27:10.040Z,25.37
2022-07-29T16:29:37.430Z,24.85
2022-07-29T16:32:06.008Z,24.80
2022-07-29T16:34:33.223Z,24.70
2022-07-29T16:37:00.746Z,24.90
2022-07-29T16:39:28.003Z,25.09
2022-07-29T16:41:59.535Z,25.05
2022-07-29T16:44:27.526Z,24.95
2022-07-29T16:46:55.949Z,24.91
2022-07-29T16:49:23.344Z,24.72
2022-07-29T16:51:50.491Z,24.71
2022-07-29T16:54:17.471Z,24.71
2022-07-29T16:56:44.429Z,24.81
2022-07-29T16:59:11.584Z,24.79
2022-07-29T17:01:38.594Z,24.74
2022-07-29T17:04:06.008Z,24.97
2022-07-29T17:06:39.105Z,24.64
2022-07-29T17:09:08.799Z,24.64
2022-07-29T17:11:53.135Z,24.80
2022-07-29T17:14:28.190Z,24.72
2022-07-29T17:17:01.155Z,24.60
2022-07-29T17:19:35.484Z,24.51
2022-07-29T17:22:18.799Z,24.36
2022-07-29T17:24:47.680Z,24.34
2022-07-29T17:27:14.839Z,24.35
2022-07-29T17:29:42.109Z,24.44
2022-07-29T17:32:10.269Z,24.44
2022-07-29T17:34:38.827Z,24.38
2022-07-29T17:37:09.359Z,24.42
2022-07-29T17:39:37.078Z,24.25
2022-07-29T17:42:04.821Z,24.21
2022-07-29T17:44:36.079Z,24.15
2022-07-29T17:47:04.770Z,24.16
2022-07-29T17:49:32.356Z,24.18
2022-07-29T17:52:01.149Z,24.12
2022-07-29T17:54:28.539Z,24.08
2022-07-29T17:56:55.745Z,24.01
2022-07-29T17:59:22.788Z,24.11
2022-07-29T18:01:49.918Z,24.19
2022-07-29T18:04:20.923Z,24.17
2022-07-29T18:06:48.024Z,24.17
2022-07-29T18:09:15.036Z,23.98
2022-07-29T18:11:45.573Z,24.00
2022-07-29T18:14:13.541Z,23.83
2022-07-29T18:16:40.873Z,23.85
2022-07-29T18:19:08.137Z,23.70
2022-07-29T18:21:43.445Z,23.77
2022-07-29T18:24:21.384Z,23.76
2022-07-29T18:26:48.364Z,23.66
2022-07-29T18:29:15.375Z,23.66
2022-07-29T18:31:42.413Z,23.63
2022-07-29T18:34:09.474Z,23.53
2022-07-29T18:36:36.566Z,23.50
2022-07-29T18:39:03.764Z,23.43
2022-07-29T18:41:30.733Z,23.51
2022-07-29T18:43:57.701Z,23.41
2022-07-29T18:46:24.836Z,23.10
2022-07-29T18:48:52.702Z,23.06
2022-07-29T18:51:19.786Z,23.01
2022-07-29T18:53:46.939Z,23.02
2022-07-29T18:56:14.117Z,22.95
2022-07-29T18:58:41.154Z,23.00
2022-07-29T19:01:08.219Z,22.92
2022-07-29T19:03:35.332Z,22.75
2022-07-29T19:06:02.386Z,22.65
2022-07-29T19:08:29.479Z,22.63
2022-07-29T19:10:56.437Z,22.58
2022-07-29T19:13:23.632Z,22.45
2022-07-29T19:15:50.761Z,22.34
2022-07-29T19:18:17.784Z,22.14
2022-07-29T19:20:44.739Z,22.15
2022-07-29T19:23:11.952Z,21.93
2022-07-29T19:25:53.179Z,21.82
2022-07-29T19:28:22.150Z,21.70
2022-07-29T19:30:49.729Z,21.66
2022-07-29T19:33:18.924Z,21.65
2022-07-29T19:35:49.285Z,21.70
2022-07-29T19:38:18.822Z,21.65
2022-07-29T19:40:45.795Z,21.51
2022-07-29T19:43:50.479Z,21.43
2022-07-29T19:45:59.887Z,21.43
2022-07-29T19:48:26.996Z,21.39
2022-07-29T19:50:53.996Z,21.40
2022-07-29T19:53:20.965Z,21.34
2022-07-29T19:55:48.162Z,21.30
2022-07-29T19:58:15.291Z,21.24
2022-07-29T20:00:42.524Z,21.09
2022-07-29T20:03:10.833Z,21.15
2022-07-29T20:05:37.874Z,20.97
2022-07-29T20:08:06.297Z,20.98
2022-07-29T20:10:33.876Z,20.92
2022-07-29T20:13:00.968Z,20.77
2022-07-29T20:15:28.037Z,20.91
2022-07-29T20:17:57.697Z,20.80
2022-07-29T20:20:25.382Z,20.68
2022-07-29T20:22:53.106Z,20.71
2022-07-29T20:25:20.155Z,20.70
2022-07-29T20:27:49.578Z,20.71
2022-07-29T20:30:16.798Z,20.69
2022-07-29T20:32:45.815Z,20.70
2022-07-29T20:35:13.427Z,20.61
2022-07-29T20:37:52.513Z,20.56
2022-07-29T20:40:24.973Z,20.68
2022-07-29T20:42:52.474Z,20.57
2022-07-29T20:45:20.172Z,20.50
2022-07-29T20:47:47.268Z,20.51
2022-07-29T20:50:14.351Z,20.51
2022-07-29T20:52:43.339Z,20.44
2022-07-29T20:55:11.148Z,20.46
2022-07-29T20:57:39.869Z,20.44
2022-07-29T21:00:09.167Z,20.46
2022-07-29T21:02:36.710Z,20.56
2022-07-29T21:05:04.293Z,20.45
2022-07-29T21:07:31.254Z,20.55
2022-07-29T21:09:58.267Z,20.39
2022-07-29T21:12:25.255Z,20.36
2022-07-29T21:14:52.277Z,20.29
2022-07-29T21:17:22.660Z,20.10
2022-07-29T21:19:55.329Z,19.98
2022-07-29T21:22:22.531Z,20.03
2022-07-29T21:24:49.757Z,19.93
2022-07-29T21:27:38.232Z,19.89
2022-07-29T21:30:09.957Z,19.91
2022-07-29T21:32:37.240Z,19.80
2022-07-29T21:35:18.292Z,19.75
2022-07-29T21:37:51.958Z,19.71
2022-07-29T21:40:18.943Z,19.77
2022-07-29T21:42:45.995Z,19.78
2022-07-29T21:45:15.858Z,19.95
2022-07-29T21:47:42.881Z,19.91
2022-07-29T21:50:10.127Z,19.77
2022-07-29T21:52:38.948Z,19.70
2022-07-29T21:55:07.715Z,19.56
2022-07-29T21:57:37.723Z,19.62
2022-07-29T22:00:08.429Z,19.60
2022-07-29T22:02:35.415Z,19.51
2022-07-29T22:05:02.509Z,19.66
2022-07-29T22:07:55.835Z,19.59
2022-07-29T22:10:16.773Z,19.46
2022-07-29T22:12:43.869Z,19.44
2022-07-29T22:15:11.532Z,19.38
2022-07-29T22:17:40.347Z,19.35
2022-07-29T22:20:08.001Z,19.53
2022-07-29T22:22:35.234Z,19.37
2022-07-29T22:25:02.838Z,19.28
2022-07-29T22:27:29.832Z,19.44
2022-07-29T22:29:58.878Z,19.30
2022-07-29T22:32:25.975Z,19.39
2022-07-29T22:34:53.187Z,19.34
2022-07-29T22:37:20.655Z,19.29
2022-07-29T22:39:47.765Z,19.28
2022-07-29T22:42:14.720Z,19.32
2022-07-29T22:44:41.732Z,19.35
2022-07-29T22:47:08.900Z,19.31
2022-07-29T22:49:35.885Z,19.29
2022-07-29T22:52:03.331Z,19.29
2022-07-29T22:54:30.360Z,19.22
2022-07-29T22:56:57.518Z,19.13
2022-07-29T22:59:24.680Z,19.08
2022-07-29T23:01:51.822Z,19.11
2022-07-29T23:04:23.579Z,19.09
2022-07-29T23:06:51.235Z,19.18
2022-07-29T23:09:18.467Z,19.09
2022-07-29T23:11:46.174Z,18.93
2022-07-29T23:14:13.479Z,18.96
2022-07-29T23:16:40.747Z,19.09
2022-07-29T23:19:07.786Z,19.02
2022-07-29T23:21:34.787Z,19.05
2022-07-29T23:24:01.942Z,19.02
2022-07-29T23:26:29.037Z,19.04
2022-07-29T23:28:56.043Z,19.10
2022-07-29T23:31:23.033Z,19.15
2022-07-29T23:33:49.992Z,19.08
2022-07-29T23:36:17.059Z,19.11
2022-07-29T23:38:45.899Z,19.09
2022-07-29T23:41:12.935Z,19.11
2022-07-29T23:43:39.905Z,19.10
2022-07-29T23:46:06.927Z,19.06
2022-07-29T23:48:34.478Z,19.10
2022-07-29T23:51:01.732Z,19.09
2022-07-29T23:53:29.342Z,19.00
2022-07-29T23:55:57.077Z,18.96
2022-07-29T23:58:24.326Z,18.92
